createdAt,value
2022-11-11T04:52:28.712Z,6.93
2022-11-11T04:55:35.062Z,7.30
2022-11-11T04:58:24.765Z,7.07
2022-11-11T05:01:11.910Z,10.77
2022-11-11T05:03:58.733Z,9.88
2022-11-11T05:07:03.838Z,9.88
2022-11-11T05:09:50.519Z,9.75
2022-11-11T05:12:37.443Z,11.23
2022-11-11T05:15:42.420Z,11.45
2022-11-11T05:18:48.269Z,12.45
2022-11-11T05:21:36.495Z,13.30
2022-11-11T05:24:43.017Z,14.80
2022-11-11T05:27:31.944Z,16.73
2022-11-11T05:30:18.921Z,16.30
2022-11-11T05:33:05.859Z,15.68
2022-11-11T05:35:51.990Z,15.73
2022-11-11T05:38:38.520Z,17.30
2022-11-11T05:41:25.901Z,17.80
2022-11-11T05:44:12.000Z,17.60
2022-11-11T05:46:58.605Z,18.45
2022-11-11T05:49:44.870Z,18.70
2022-11-11T05:52:32.195Z,17.48
2022-11-11T05:55:18.353Z,16.75
2022-11-11T05:58:04.509Z,16.00
2022-11-11T06:00:51.040Z,15.13
2022-11-11T06:03:36.551Z,14.05
2022-11-11T06:06:22.337Z,14.48
2022-11-11T06:09:13.882Z,15.97
2022-11-11T06:12:00.511Z,17.33
2022-11-11T06:14:46.461Z,17.00
2022-11-11T06:17:33.967Z,16.27
2022-11-11T06:20:20.039Z,15.40
2022-11-11T06:23:05.969Z,14.52
2022-11-11T06:26:10.444Z,13.65
2022-11-11T06:28:57.533Z,13.05
2022-11-11T06:31:43.503Z,15.75
2022-11-11T06:34:29.840Z,15.17
2022-11-11T06:37:15.904Z,17.43
2022-11-11T06:40:01.691Z,17.85
2022-11-11T06:42:47.712Z,19.35
2022-11-11T06:45:36.234Z,20.67
2022-11-11T06:48:23.822Z,20.30
2022-11-11T06:51:11.428Z,20.02
2022-11-11T06:53:57.177Z,20.33
2022-11-11T06:56:43.489Z,21.38
2022-11-11T06:59:29.295Z,21.40
2022-11-11T07:02:16.924Z,21.42
2022-11-11T07:05:03.685Z,21.20
2022-11-11T07:07:49.731Z,19.87
2022-11-11T07:10:40.614Z,18.88
2022-11-11T07:13:26.783Z,19.58
2022-11-11T07:16:13.480Z,19.53
2022-11-11T07:18:59.521Z,20.53
2022-11-11T07:21:46.474Z,20.77
2022-11-11T07:24:32.846Z,18.92
2022-11-11T07:27:18.724Z,20.17
2022-11-11T07:30:07.184Z,14.95
2022-11-11T07:32:53.897Z,14.40
2022-11-11T07:38:26.089Z,12.77
2022-11-11T07:41:12.399Z,14.40
2022-11-11T07:43:58.243Z,15.05
2022-11-11T07:46:44.800Z,15.63
2022-11-11T07:49:30.834Z,15.23
2022-11-11T07:52:16.721Z,14.82
2022-11-11T07:55:02.477Z,13.98
2022-11-11T07:57:52.222Z,14.10
2022-11-11T08:00:38.221Z,15.27
2022-11-11T08:03:24.679Z,14.20
2022-11-11T08:06:10.917Z,13.63
2022-11-11T08:08:56.768Z,14.15
2022-11-11T08:12:00.988Z,14.88
2022-11-11T08:14:46.984Z,13.55
2022-11-11T08:20:21.867Z,13.20
2022-11-11T08:29:02.251Z,13.63
2022-11-11T08:31:47.934Z,13.48
2022-11-11T08:34:33.823Z,12.30
2022-11-11T08:37:19.929Z,12.07
2022-11-11T08:40:06.215Z,13.18
2022-11-11T08:42:56.098Z,12.77
2022-11-11T08:45:41.947Z,11.88
2022-11-11T08:48:27.912Z,11.60
2022-11-11T08:51:14.199Z,10.43
2022-11-11T08:53:59.873Z,9.90
2022-11-11T08:56:45.659Z,8.50
2022-11-11T08:59:31.180Z,9.25
2022-11-11T09:02:17.434Z,8.17
2022-11-11T09:05:03.971Z,8.98
2022-11-11T09:07:49.694Z,8.70
2022-11-11T09:10:35.875Z,8.27
2022-11-11T09:13:21.539Z,8.85
2022-11-11T09:16:08.957Z,7.50
2022-11-11T09:18:54.954Z,7.95
2022-11-11T09:21:40.900Z,7.30
2022-11-11T09:24:26.740Z,7.53
2022-11-11T09:27:12.611Z,5.88
2022-11-11T09:29:58.357Z,4.83
2022-11-11T09:32:44.344Z,5.72
2022-11-11T09:35:30.562Z,5.85
2022-11-11T09:38:16.207Z,6.15
2022-11-11T09:41:10.992Z,6.50
2022-11-11T09:43:59.784Z,7.25
2022-11-11T09:47:24.012Z,6.55
2022-11-11T09:50:18.933Z,6.90
2022-11-11T09:53:18.264Z,7.28
2022-11-11T09:56:29.809Z,8.38
2022-11-11T09:59:27.537Z,8.55
2022-11-11T10:02:26.427Z,10.00
2022-11-11T10:05:19.543Z,11.27
2022-11-11T10:08:17.218Z,12.63
2022-11-11T10:11:11.884Z,13.35
2022-11-11T10:13:58.129Z,14.07
2022-11-11T10:17:05.147Z,12.97
2022-11-11T10:20:17.878Z,13.67
2022-11-11T10:23:13.621Z,12.60
2022-11-11T10:26:07.145Z,13.00
2022-11-11T10:28:53.713Z,12.50
2022-11-11T10:31:41.901Z,11.15
2022-11-11T10:34:33.457Z,18.52
2022-11-11T10:37:23.686Z,10.68
2022-11-11T10:40:21.858Z,10.57
2022-11-11T10:43:19.569Z,11.15
2022-11-11T10:46:31.064Z,11.98
2022-11-11T10:49:24.119Z,11.50
2022-11-11T10:52:20.679Z,11.35
2022-11-11T10:55:12.910Z,11.43
2022-11-11T10:58:13.003Z,13.05
2022-11-11T11:01:02.646Z,13.00
2022-11-11T11:04:12.192Z,12.88
2022-11-11T11:07:01.879Z,12.52
2022-11-11T11:10:02.765Z,12.65
2022-11-11T11:13:06.235Z,13.52
2022-11-11T11:15:58.033Z,13.93
2022-11-11T11:18:44.549Z,13.43
2022-11-11T11:24:43.707Z,13.68
2022-11-11T11:27:30.328Z,13.45
2022-11-11T11:30:19.638Z,14.10
2022-11-11T11:33:08.042Z,14.07
2022-11-11T11:35:53.729Z,12.30
2022-11-11T11:38:41.668Z,14.27
2022-11-11T11:41:52.047Z,13.23
2022-11-11T11:44:38.869Z,13.02
2022-11-11T11:47:44.159Z,13.25
2022-11-11T11:50:35.529Z,12.73
2022-11-11T11:53:36.031Z,14.15
2022-11-11T11:56:27.522Z,13.25
2022-11-11T11:59:38.026Z,13.45
2022-11-11T12:03:08.723Z,13.80
2022-11-11T12:06:12.852Z,13.55
2022-11-11T12:09:34.330Z,14.48
2022-11-11T12:12:37.348Z,12.48
2022-11-11T12:15:38.249Z,12.52
2022-11-11T12:18:53.156Z,12.00
2022-11-11T12:22:03.439Z,12.85
2022-11-11T12:25:14.007Z,11.43
2022-11-11T12:28:15.214Z,10.88
2022-11-11T12:31:27.175Z,12.82
2022-11-11T12:34:23.007Z,12.32
2022-11-11T12:37:12.000Z,11.00
2022-11-11T12:40:16.474Z,12.20
2022-11-11T12:43:29.688Z,11.70
2022-11-11T12:46:37.835Z,11.90
2022-11-11T12:49:50.289Z,12.73
2022-11-11T12:52:51.448Z,13.55
2022-11-11T12:55:57.388Z,14.65
2022-11-11T12:59:20.428Z,14.05
2022-11-11T13:02:09.066Z,13.90
2022-11-11T13:05:16.385Z,13.95
2022-11-11T13:08:40.663Z,14.75
2022-11-11T13:11:54.207Z,14.40
2022-11-11T13:14:55.804Z,13.60
2022-11-11T13:17:44.684Z,13.73
2022-11-11T13:20:52.232Z,16.10
2022-11-11T13:23:38.219Z,13.93
2022-11-11T13:26:32.605Z,16.13
2022-11-11T13:29:32.762Z,14.70
2022-11-11T13:32:25.220Z,14.57
2022-11-11T13:35:22.139Z,13.80
2022-11-11T13:38:23.523Z,13.75
2022-11-11T13:41:10.359Z,13.02
2022-11-11T13:44:01.748Z,13.05
2022-11-11T13:46:50.118Z,13.25
2022-11-11T13:49:43.757Z,12.38
2022-11-11T13:52:38.066Z,13.40
2022-11-11T13:55:31.526Z,14.25
2022-11-11T13:58:27.849Z,14.10
2022-11-11T14:01:16.297Z,13.30
2022-11-11T14:04:07.987Z,13.73
2022-11-11T14:06:54.535Z,14.45
2022-11-11T14:09:54.230Z,14.60
2022-11-11T14:12:42.087Z,14.35
2022-11-11T14:15:50.175Z,15.43
2022-11-11T14:18:41.025Z,15.82
2022-11-11T14:21:58.790Z,15.75
2022-11-11T14:24:46.644Z,16.20
2022-11-11T14:27:34.181Z,17.40
2022-11-11T14:30:36.565Z,16.45
2022-11-11T14:33:47.228Z,17.83
2022-11-11T14:37:08.872Z,17.63
2022-11-11T14:39:56.050Z,17.55
2022-11-11T14:42:44.655Z,18.13
2022-11-11T14:45:30.655Z,19.48
2022-11-11T14:48:50.310Z,19.73
2022-11-11T14:51:50.254Z,19.63
2022-11-11T14:54:50.845Z,19.52
2022-11-11T14:57:48.489Z,22.13
2022-11-11T15:00:48.228Z,24.55
2022-11-11T15:03:49.924Z,25.70
2022-11-11T15:06:44.277Z,27.00
2022-11-11T15:09:45.400Z,33.25
2022-11-11T15:12:54.147Z,29.42
2022-11-11T15:15:40.044Z,27.13
2022-11-11T15:18:51.332Z,25.77
2022-11-11T15:21:46.486Z,28.95
2022-11-11T15:24:44.351Z,28.45
2022-11-11T15:27:40.456Z,27.70
2022-11-11T15:30:55.425Z,29.13
2022-11-11T15:33:52.907Z,31.25
2022-11-11T15:37:00.051Z,28.52
2022-11-11T15:39:53.120Z,30.42
2022-11-11T15:42:45.995Z,29.58
2022-11-11T15:45:34.877Z,31.08
2022-11-11T15:48:28.583Z,31.20
2022-11-11T15:51:25.893Z,30.92
2022-11-11T15:54:26.465Z,32.30
2022-11-11T15:57:22.852Z,33.33
2022-11-11T16:00:25.062Z,31.65
2022-11-11T16:03:17.224Z,32.15
2022-11-11T16:06:07.583Z,32.70
2022-11-11T16:08:56.593Z,32.88
2022-11-11T16:11:43.339Z,32.58
2022-11-11T16:14:40.118Z,33.75
2022-11-11T16:17:31.209Z,33.15
2022-11-11T16:20:21.240Z,33.45
2022-11-11T16:23:09.008Z,33.97
2022-11-11T16:25:57.888Z,33.33
2022-11-11T16:28:52.810Z,32.60
2022-11-11T16:31:44.703Z,33.80
2022-11-11T16:34:38.185Z,32.22
2022-11-11T16:37:24.428Z,33.05
2022-11-11T16:40:34.406Z,33.80
2022-11-11T16:43:27.967Z,35.10
2022-11-11T16:46:15.990Z,33.80
2022-11-11T16:49:16.620Z,32.53
2022-11-11T16:52:16.795Z,32.33
2022-11-11T16:55:03.114Z,31.73
2022-11-11T16:57:49.708Z,32.17
2022-11-11T17:00:38.447Z,33.17
2022-11-11T17:03:25.971Z,32.45
2022-11-11T17:06:12.354Z,33.47
2022-11-11T17:08:58.077Z,33.20
2022-11-11T17:11:46.220Z,33.42
2022-11-11T17:14:34.829Z,30.42
2022-11-11T17:17:21.236Z,29.95
2022-11-11T17:20:13.648Z,29.05
2022-11-11T17:22:59.612Z,30.70
2022-11-11T17:25:45.813Z,29.77
2022-11-11T17:28:36.605Z,30.52
2022-11-11T17:31:24.034Z,29.33
2022-11-11T17:34:10.379Z,28.88
2022-11-11T17:36:56.818Z,29.15
2022-11-11T17:39:45.146Z,27.58
2022-11-11T17:42:32.400Z,27.10
2022-11-11T17:48:04.943Z,26.30
2022-11-11T17:50:50.715Z,26.25
2022-11-11T17:53:37.237Z,27.37
2022-11-11T17:56:26.626Z,26.40
2022-11-11T17:59:12.460Z,25.15
2022-11-11T18:01:58.990Z,26.13
2022-11-11T18:04:44.880Z,25.40
2022-11-11T18:07:30.391Z,25.08
2022-11-11T18:10:16.623Z,23.90
2022-11-11T18:13:02.346Z,25.35
2022-11-11T18:15:48.033Z,24.92
2022-11-11T18:18:34.544Z,24.50
2022-11-11T18:21:21.525Z,22.60
2022-11-11T18:24:08.933Z,23.45
2022-11-11T18:26:54.638Z,29.38
2022-11-11T18:29:41.053Z,30.48
2022-11-11T18:32:27.291Z,32.30
2022-11-11T18:35:13.655Z,33.55
2022-11-11T18:37:59.783Z,30.23
2022-11-11T18:40:45.545Z,28.15
2022-11-11T18:43:44.209Z,28.40
2022-11-11T18:46:30.292Z,28.75
2022-11-11T18:49:16.279Z,28.27
2022-11-11T18:52:01.879Z,29.30
2022-11-11T18:54:47.781Z,30.98
2022-11-11T18:57:33.934Z,29.85
2022-11-11T19:00:21.492Z,29.20
2022-11-11T19:03:07.507Z,29.88
2022-11-11T19:05:52.991Z,26.75
2022-11-11T19:08:39.219Z,26.63
2022-11-11T19:11:26.455Z,27.88
2022-11-11T19:14:17.380Z,28.40
2022-11-11T19:17:06.443Z,27.27
2022-11-11T19:19:55.389Z,27.77
2022-11-11T19:22:41.332Z,27.80
2022-11-11T19:25:27.143Z,27.80
2022-11-11T19:28:12.912Z,27.20
2022-11-11T19:31:06.623Z,27.63
2022-11-11T19:33:54.652Z,27.10
2022-11-11T19:36:40.950Z,27.75
2022-11-11T19:39:26.714Z,28.63
2022-11-11T19:42:12.611Z,28.48
2022-11-11T19:45:00.003Z,26.73
2022-11-11T19:47:48.836Z,27.63
2022-11-11T19:50:34.732Z,29.53
2022-11-11T19:53:20.685Z,30.20
2022-11-11T19:56:11.706Z,28.08
2022-11-11T19:58:58.183Z,27.45
2022-11-11T20:01:43.971Z,26.37
2022-11-11T20:04:30.340Z,29.27
2022-11-11T20:07:16.592Z,30.40
2022-11-11T20:10:03.398Z,28.13
2022-11-11T20:12:53.575Z,28.13
2022-11-11T20:15:41.767Z,26.85
2022-11-11T20:18:30.116Z,25.88
2022-11-11T20:21:17.308Z,26.27
2022-11-11T20:24:05.695Z,25.97
2022-11-11T20:26:54.078Z,25.33
2022-11-11T20:29:41.068Z,25.45
2022-11-11T20:32:28.346Z,27.42
2022-11-11T20:35:14.964Z,27.55
2022-11-11T20:38:01.977Z,28.33
2022-11-11T20:40:59.961Z,27.48
2022-11-11T20:43:47.263Z,28.25
2022-11-11T20:46:33.920Z,25.13
2022-11-11T20:49:21.441Z,26.38
2022-11-11T20:52:07.747Z,26.08
2022-11-11T20:54:54.629Z,24.75
2022-11-11T20:57:42.095Z,24.88
2022-11-11T21:00:29.114Z,27.55
2022-11-11T21:03:14.796Z,29.73
2022-11-11T21:06:08.437Z,28.02
2022-11-11T21:08:54.754Z,30.35
2022-11-11T21:11:40.733Z,32.90
2022-11-11T21:14:26.598Z,34.20
2022-11-11T21:17:12.904Z,32.33
2022-11-11T21:19:58.621Z,35.20
2022-11-11T21:22:44.737Z,34.30
2022-11-11T21:25:35.326Z,34.53
2022-11-11T21:28:22.565Z,35.70
2022-11-11T21:31:16.278Z,35.03
2022-11-11T21:34:09.132Z,33.03
2022-11-11T21:36:55.111Z,30.77
2022-11-11T21:39:42.084Z,29.70
2022-11-11T21:42:28.959Z,28.02
2022-11-11T21:45:15.711Z,26.42
2022-11-11T21:48:01.877Z,23.10
2022-11-11T21:50:48.445Z,25.40
2022-11-11T21:53:36.237Z,24.88
2022-11-11T21:56:23.634Z,26.08
2022-11-11T21:59:10.384Z,23.38
2022-11-11T22:01:57.512Z,23.67
2022-11-11T22:04:43.968Z,24.42
2022-11-11T22:07:30.164Z,24.73
2022-11-11T22:10:16.864Z,25.60
2022-11-11T22:13:03.880Z,24.48
2022-11-11T22:15:58.369Z,26.58
2022-11-11T22:18:44.962Z,26.25
2022-11-11T22:21:37.088Z,26.60
2022-11-11T22:24:23.324Z,27.33
2022-11-11T22:27:09.115Z,27.88
2022-11-11T22:29:54.854Z,28.73
2022-11-11T22:32:40.847Z,29.40
2022-11-11T22:35:27.531Z,27.98
2022-11-11T22:38:15.585Z,27.40
2022-11-11T22:41:12.796Z,26.58
2022-11-11T22:44:01.101Z,27.35
2022-11-11T22:46:48.068Z,26.75
2022-11-11T22:49:35.574Z,26.00
2022-11-11T22:52:22.771Z,27.55
2022-11-11T22:55:11.314Z,28.88
2022-11-11T22:57:58.269Z,28.50
2022-11-11T23:00:44.586Z,26.77
2022-11-11T23:03:40.127Z,27.90
2022-11-11T23:06:31.039Z,26.77
2022-11-11T23:09:17.266Z,24.80
2022-11-11T23:12:05.154Z,24.60
2022-11-11T23:14:51.875Z,22.70
2022-11-11T23:17:38.736Z,23.65
2022-11-11T23:20:26.185Z,22.80
2022-11-11T23:23:13.487Z,23.27
2022-11-11T23:26:08.416Z,21.70
2022-11-11T23:28:56.313Z,22.42
2022-11-11T23:31:42.666Z,22.73
2022-11-11T23:34:29.905Z,24.77
2022-11-11T23:37:16.324Z,24.20
2022-11-11T23:40:02.380Z,25.65
2022-11-11T23:42:48.377Z,25.73
2022-11-11T23:45:34.115Z,24.90
2022-11-11T23:48:20.876Z,26.03
2022-11-11T23:51:07.071Z,25.50
2022-11-11T23:53:53.036Z,23.77
2022-11-11T23:56:39.333Z,25.65
2022-11-11T23:59:25.633Z,26.58
